createdAt,value
2017-06-28T00:02:23.570Z,9.03
2017-06-28T00:04:51.336Z,8.63
2017-06-28T00:07:18.849Z,8.57
2017-06-28T00:09:46.450Z,8.10
2017-06-28T00:12:13.975Z,9.33
2017-06-28T00:14:41.493Z,8.30
2017-06-28T00:17:09.016Z,8.37
2017-06-28T00:19:36.522Z,8.77
2017-06-28T00:22:04.035Z,9.10
2017-06-28T00:24:31.595Z,8.67
2017-06-28T00:26:59.163Z,9.03
2017-06-28T00:29:26.690Z,10.43
2017-06-28T00:31:54.279Z,9.73
2017-06-28T00:34:21.853Z,11.10
2017-06-28T00:36:49.361Z,10.40
2017-06-28T00:39:16.922Z,9.37
2017-06-28T00:41:44.442Z,10.07
2017-06-28T00:44:11.945Z,10.30
2017-06-28T00:46:39.530Z,9.37
2017-06-28T00:49:07.298Z,10.57
2017-06-28T00:51:34.833Z,10.43
2017-06-28T00:54:02.404Z,12.13
2017-06-28T00:56:29.986Z,12.87
2017-06-28T00:58:57.520Z,11.33
2017-06-28T01:01:25.109Z,11.20
2017-06-28T01:03:52.939Z,13.17
2017-06-28T01:06:20.506Z,12.70
2017-06-28T01:08:48.074Z,12.50
2017-06-28T01:11:15.609Z,12.77
2017-06-28T01:13:43.153Z,12.07
2017-06-28T01:16:10.741Z,11.20
2017-06-28T01:18:38.254Z,12.63
2017-06-28T01:21:05.779Z,10.47
2017-06-28T01:23:33.344Z,10.37
2017-06-28T01:26:00.857Z,10.40
2017-06-28T01:28:28.384Z,9.67
2017-06-28T01:30:56.258Z,10.47
2017-06-28T01:33:23.841Z,9.87
2017-06-28T01:35:51.388Z,10.50
2017-06-28T01:38:18.925Z,10.10
2017-06-28T01:40:46.450Z,11.20
2017-06-28T01:43:14.014Z,11.13
2017-06-28T01:45:41.584Z,10.70
2017-06-28T01:48:09.093Z,10.33
2017-06-28T01:50:36.632Z,11.97
2017-06-28T01:53:04.244Z,10.63
2017-06-28T01:55:31.768Z,10.50
2017-06-28T01:57:59.299Z,10.07
2017-06-28T02:00:26.925Z,11.20
2017-06-28T02:02:54.740Z,10.33
2017-06-28T02:05:22.551Z,9.10
2017-06-28T02:07:50.127Z,10.13
2017-06-28T02:10:17.625Z,9.70
2017-06-28T02:12:45.145Z,8.70
2017-06-28T02:15:12.713Z,8.90
2017-06-28T02:17:40.220Z,9.67
2017-06-28T02:20:07.730Z,9.60
2017-06-28T02:22:35.327Z,9.40
2017-06-28T02:25:02.895Z,9.70
2017-06-28T02:27:30.461Z,9.70
2017-06-28T02:29:58.062Z,8.87
2017-06-28T02:32:25.621Z,8.77
2017-06-28T02:34:53.131Z,9.33
2017-06-28T02:37:20.641Z,10.03
2017-06-28T02:39:48.249Z,10.70
2017-06-28T02:42:15.766Z,9.77
2017-06-28T02:44:43.274Z,10.13
2017-06-28T02:47:10.847Z,9.77
2017-06-28T02:49:38.365Z,9.00
2017-06-28T02:52:05.871Z,9.53
2017-06-28T02:54:33.468Z,10.10
2017-06-28T02:57:00.993Z,10.80
2017-06-28T02:59:28.512Z,9.90
2017-06-28T03:01:56.060Z,10.40
2017-06-28T03:04:23.631Z,10.00
2017-06-28T03:06:51.171Z,10.80
2017-06-28T03:09:18.722Z,10.00
2017-06-28T03:11:46.239Z,10.50
2017-06-28T03:14:13.762Z,11.50
2017-06-28T03:16:41.380Z,11.07
2017-06-28T03:19:08.897Z,11.00
2017-06-28T03:21:36.404Z,10.23
2017-06-28T03:24:04.002Z,10.53
2017-06-28T03:26:31.521Z,10.10
2017-06-28T03:28:59.361Z,10.17
2017-06-28T03:31:26.969Z,11.00
2017-06-28T03:33:54.548Z,11.10
2017-06-28T03:36:22.080Z,11.73
2017-06-28T03:38:49.624Z,11.77
2017-06-28T03:41:17.137Z,12.97
2017-06-28T03:43:44.657Z,12.90
2017-06-28T03:46:12.276Z,11.67
2017-06-28T03:48:39.865Z,14.37
2017-06-28T03:51:07.393Z,13.70
2017-06-28T03:53:35.158Z,13.00
2017-06-28T03:56:02.664Z,13.20
2017-06-28T03:58:30.187Z,13.10
2017-06-28T04:00:57.740Z,13.30
2017-06-28T04:03:25.509Z,13.33
2017-06-28T04:05:53.020Z,11.80
2017-06-28T04:08:20.566Z,13.03
2017-06-28T04:10:48.110Z,12.57
2017-06-28T04:13:15.636Z,12.00
2017-06-28T04:15:43.191Z,11.90
2017-06-28T04:18:10.744Z,13.40
2017-06-28T04:20:38.352Z,13.63
2017-06-28T04:23:06.006Z,12.33
2017-06-28T04:25:33.526Z,12.90
2017-06-28T04:28:01.040Z,12.73
2017-06-28T04:30:28.602Z,12.10
2017-06-28T04:32:56.116Z,11.03
2017-06-28T04:35:23.624Z,10.80
2017-06-28T04:37:51.154Z,12.90
2017-06-28T04:40:18.666Z,11.10
2017-06-28T04:42:46.181Z,10.97
2017-06-28T04:45:13.744Z,11.33
2017-06-28T04:47:41.290Z,11.50
2017-06-28T04:50:08.809Z,11.73
2017-06-28T04:52:36.377Z,12.93
2017-06-28T04:55:03.884Z,11.70
2017-06-28T04:57:31.388Z,11.73
2017-06-28T04:59:58.933Z,12.13
2017-06-28T05:02:26.482Z,12.17
2017-06-28T05:04:53.988Z,11.83
2017-06-28T05:07:21.496Z,12.23
2017-06-28T05:09:49.042Z,12.07
2017-06-28T05:12:16.559Z,11.17
2017-06-28T05:14:44.060Z,10.83
2017-06-28T05:17:11.614Z,11.10
2017-06-28T05:19:39.122Z,11.50
2017-06-28T05:22:06.697Z,11.80
2017-06-28T05:24:34.309Z,13.03
2017-06-28T05:27:01.893Z,11.93
2017-06-28T05:29:29.458Z,11.17
2017-06-28T05:31:57.058Z,10.87
2017-06-28T05:34:24.573Z,12.03
2017-06-28T05:36:52.095Z,12.47
2017-06-28T05:39:19.664Z,12.57
2017-06-28T05:41:47.172Z,12.90
2017-06-28T05:44:14.693Z,14.07
2017-06-28T05:46:42.240Z,13.57
2017-06-28T05:49:09.754Z,13.80
2017-06-28T05:51:37.310Z,15.00
2017-06-28T05:54:04.856Z,15.90
2017-06-28T05:56:32.366Z,13.80
2017-06-28T05:58:59.888Z,14.07
2017-06-28T06:01:27.443Z,14.80
2017-06-28T06:03:54.963Z,13.73
2017-06-28T06:06:22.490Z,14.53
2017-06-28T06:08:50.142Z,15.70
2017-06-28T06:11:17.655Z,15.30
2017-06-28T06:13:45.165Z,15.30
2017-06-28T06:16:12.704Z,16.00
2017-06-28T06:18:40.227Z,16.40
2017-06-28T06:21:07.811Z,15.80
2017-06-28T06:23:35.353Z,16.20
2017-06-28T06:26:02.888Z,14.70
2017-06-28T06:28:30.403Z,16.20
2017-06-28T06:30:57.953Z,14.97
2017-06-28T06:33:25.448Z,15.60
2017-06-28T06:35:52.969Z,16.30
2017-06-28T06:38:20.578Z,16.03
2017-06-28T06:40:48.097Z,16.37
2017-06-28T06:43:15.608Z,14.53
2017-06-28T06:45:43.180Z,15.83
2017-06-28T06:48:10.751Z,15.20
2017-06-28T06:50:39.204Z,15.23
2017-06-28T06:53:06.756Z,16.60
2017-06-28T06:55:34.274Z,15.07
2017-06-28T06:58:01.800Z,17.73
2017-06-28T07:00:29.347Z,15.13
2017-06-28T07:02:56.868Z,17.30
2017-06-28T07:05:24.393Z,16.50
2017-06-28T07:07:51.953Z,17.60
2017-06-28T07:10:19.484Z,17.17
2017-06-28T07:12:46.993Z,16.80
2017-06-28T07:15:14.583Z,16.50
2017-06-28T07:17:42.107Z,17.70
2017-06-28T07:20:09.626Z,16.23
2017-06-28T07:22:37.169Z,16.17
2017-06-28T07:25:04.679Z,17.83
2017-06-28T07:27:32.242Z,17.10
2017-06-28T07:29:59.810Z,17.20
2017-06-28T07:32:27.382Z,18.00
2017-06-28T07:34:54.971Z,16.80
2017-06-28T07:37:22.535Z,17.50
2017-06-28T07:39:50.123Z,17.17
2017-06-28T07:42:17.645Z,17.03
2017-06-28T07:44:45.158Z,17.73
2017-06-28T07:47:12.763Z,17.67
2017-06-28T07:49:40.292Z,17.20
2017-06-28T07:52:07.799Z,17.70
2017-06-28T07:54:35.357Z,16.27
2017-06-28T07:57:02.880Z,17.80
2017-06-28T07:59:30.393Z,16.73
2017-06-28T08:01:57.925Z,17.00
2017-06-28T08:04:25.526Z,17.93
2017-06-28T08:06:53.051Z,18.10
2017-06-28T08:09:20.655Z,18.00
2017-06-28T08:11:48.203Z,17.60
2017-06-28T08:14:15.720Z,17.90
2017-06-28T08:16:43.336Z,17.63
2017-06-28T08:19:10.859Z,18.07
2017-06-28T08:21:38.367Z,17.47
2017-06-28T08:24:05.916Z,17.63
2017-06-28T08:26:33.488Z,17.73
2017-06-28T08:29:01.004Z,17.47
2017-06-28T08:31:28.554Z,17.00
2017-06-28T08:33:56.057Z,18.67
2017-06-28T08:36:23.580Z,16.20
2017-06-28T08:38:51.173Z,16.53
2017-06-28T08:41:18.690Z,16.67
2017-06-28T08:43:46.246Z,16.50
2017-06-28T08:46:13.854Z,15.80
2017-06-28T08:48:41.374Z,16.27
2017-06-28T08:51:08.900Z,16.60
2017-06-28T08:53:36.519Z,16.43
2017-06-28T08:56:04.056Z,16.17
2017-06-28T08:58:31.632Z,17.40
2017-06-28T09:00:59.195Z,14.83
2017-06-28T09:03:26.696Z,16.50
2017-06-28T09:05:54.215Z,17.00
2017-06-28T09:08:21.768Z,15.90
2017-06-28T09:10:49.305Z,16.77
2017-06-28T09:13:16.827Z,16.70
2017-06-28T09:15:44.423Z,14.73
2017-06-28T09:18:11.934Z,15.67
2017-06-28T09:20:39.452Z,16.00
2017-06-28T09:23:06.992Z,15.70
2017-06-28T09:25:34.513Z,16.73
2017-06-28T09:28:02.044Z,16.40
2017-06-28T09:30:29.689Z,15.40
2017-06-28T09:32:57.187Z,15.93
2017-06-28T09:35:24.684Z,15.90
2017-06-28T09:37:52.936Z,16.67
2017-06-28T09:40:20.465Z,16.57
2017-06-28T09:42:47.992Z,16.30
2017-06-28T09:45:15.527Z,16.10
2017-06-28T09:47:43.038Z,16.07
2017-06-28T09:50:10.555Z,15.80
2017-06-28T09:52:38.114Z,16.53
2017-06-28T09:55:05.639Z,16.40
2017-06-28T09:57:33.165Z,16.00
2017-06-28T10:00:00.706Z,16.50
2017-06-28T10:02:28.249Z,16.23
2017-06-28T10:04:55.784Z,16.67
2017-06-28T10:07:23.292Z,15.80
2017-06-28T10:09:50.841Z,15.73
2017-06-28T10:12:18.361Z,15.83
2017-06-28T10:14:45.876Z,16.83
2017-06-28T10:17:13.436Z,16.33
2017-06-28T10:19:40.950Z,15.03
2017-06-28T10:22:08.462Z,17.33
2017-06-28T10:24:36.008Z,14.40
2017-06-28T10:27:03.525Z,16.50
2017-06-28T10:29:31.068Z,14.70
2017-06-28T10:31:58.615Z,15.40
2017-06-28T10:34:26.136Z,16.17
2017-06-28T10:36:53.645Z,17.30
2017-06-28T10:39:21.208Z,16.03
2017-06-28T10:41:48.720Z,16.57
2017-06-28T10:44:16.240Z,15.30
2017-06-28T10:46:43.809Z,15.20
2017-06-28T10:49:11.501Z,15.73
2017-06-28T10:51:39.063Z,15.33
2017-06-28T10:54:06.674Z,16.17
2017-06-28T10:56:34.213Z,16.03
2017-06-28T10:59:01.733Z,16.80
2017-06-28T11:01:29.277Z,16.87
2017-06-28T11:03:56.777Z,16.20
2017-06-28T11:06:24.310Z,15.63
2017-06-28T11:08:51.853Z,15.57
2017-06-28T11:11:19.372Z,15.60
2017-06-28T11:13:46.886Z,16.00
2017-06-28T11:16:14.427Z,16.07
2017-06-28T11:18:41.961Z,14.97
2017-06-28T11:21:09.500Z,15.50
2017-06-28T11:23:37.051Z,15.03
2017-06-28T11:26:04.563Z,14.50
2017-06-28T11:28:32.105Z,14.73
2017-06-28T11:30:59.687Z,16.23
2017-06-28T11:33:27.239Z,15.50
2017-06-28T11:35:54.837Z,15.23
2017-06-28T11:38:22.373Z,15.27
2017-06-28T11:40:49.891Z,15.07
2017-06-28T11:43:17.410Z,15.33
2017-06-28T11:45:44.972Z,15.40
2017-06-28T11:48:12.507Z,15.43
2017-06-28T11:50:40.019Z,14.80
2017-06-28T11:53:07.589Z,14.50
2017-06-28T11:55:35.101Z,15.70
2017-06-28T11:58:02.650Z,15.60
2017-06-28T12:00:30.191Z,15.57
2017-06-28T12:02:57.697Z,15.37
2017-06-28T12:05:25.201Z,14.90
2017-06-28T12:07:52.775Z,15.00
2017-06-28T12:10:20.296Z,14.93
2017-06-28T12:12:47.802Z,13.70
2017-06-28T12:15:15.353Z,12.90
2017-06-28T12:17:42.866Z,14.23
2017-06-28T12:20:10.381Z,13.77
2017-06-28T12:22:37.943Z,13.73
2017-06-28T12:25:05.483Z,14.40
2017-06-28T12:27:33.002Z,13.67
2017-06-28T12:30:00.562Z,13.90
2017-06-28T12:32:28.119Z,14.13
2017-06-28T12:34:55.651Z,13.40
2017-06-28T12:37:23.174Z,13.53
2017-06-28T12:39:50.723Z,13.17
2017-06-28T12:42:18.253Z,13.93
2017-06-28T12:44:45.764Z,14.37
2017-06-28T12:47:13.321Z,12.77
2017-06-28T12:49:40.837Z,11.70
2017-06-28T12:52:08.357Z,12.80
2017-06-28T12:54:35.919Z,12.37
2017-06-28T12:57:03.438Z,13.10
2017-06-28T12:59:30.959Z,13.17
2017-06-28T13:01:58.514Z,14.43
2017-06-28T13:04:26.047Z,12.43
2017-06-28T13:06:53.572Z,12.20
2017-06-28T13:09:21.117Z,11.83
2017-06-28T13:11:48.635Z,13.30
2017-06-28T13:14:16.141Z,13.47
2017-06-28T13:16:43.689Z,12.73
2017-06-28T13:19:11.222Z,13.03
2017-06-28T13:21:38.732Z,13.20
2017-06-28T13:24:06.297Z,12.03
2017-06-28T13:26:34.111Z,12.10
2017-06-28T13:29:01.637Z,12.47
2017-06-28T13:31:29.233Z,12.40
2017-06-28T13:33:56.761Z,13.13
2017-06-28T13:36:24.294Z,11.70
2017-06-28T13:38:51.876Z,12.93
2017-06-28T13:41:19.380Z,12.83
2017-06-28T13:43:46.911Z,13.43
2017-06-28T13:46:14.455Z,13.70
2017-06-28T13:48:41.973Z,13.50
2017-06-28T13:51:09.486Z,14.00
2017-06-28T13:53:37.061Z,13.40
2017-06-28T13:56:04.585Z,14.57
2017-06-28T13:58:32.107Z,13.77
2017-06-28T14:00:59.666Z,13.60
2017-06-28T14:03:27.165Z,13.67
2017-06-28T14:05:54.678Z,15.47
2017-06-28T14:08:22.245Z,14.20
2017-06-28T14:10:49.777Z,13.67
2017-06-28T14:13:17.305Z,15.50
2017-06-28T14:15:44.868Z,16.27
2017-06-28T14:18:12.393Z,16.63
2017-06-28T14:20:39.906Z,16.67
2017-06-28T14:23:07.471Z,16.90
2017-06-28T14:25:34.983Z,18.43
2017-06-28T14:28:02.525Z,15.70
2017-06-28T14:30:30.118Z,16.10
2017-06-28T14:32:57.671Z,15.40
2017-06-28T14:35:25.612Z,15.83
2017-06-28T14:37:53.201Z,17.13
2017-06-28T14:40:20.731Z,17.07
2017-06-28T14:42:48.241Z,16.00
2017-06-28T14:45:15.817Z,15.93
2017-06-28T14:47:43.350Z,16.37
2017-06-28T14:50:10.858Z,16.80
2017-06-28T14:52:38.431Z,16.03
2017-06-28T14:55:05.945Z,16.07
2017-06-28T14:57:33.465Z,16.37
2017-06-28T15:00:01.040Z,17.33
2017-06-28T15:02:28.579Z,17.23
2017-06-28T15:04:56.097Z,15.07
2017-06-28T15:07:23.617Z,16.87
2017-06-28T15:09:51.224Z,18.53
2017-06-28T15:12:18.734Z,17.17
2017-06-28T15:14:46.248Z,18.90
2017-06-28T15:17:13.801Z,16.80
2017-06-28T15:19:41.309Z,16.97
2017-06-28T15:22:08.826Z,16.03
2017-06-28T15:24:36.389Z,16.30
2017-06-28T15:27:03.917Z,14.40
2017-06-28T15:29:31.448Z,15.17
2017-06-28T15:31:58.988Z,15.63
2017-06-28T15:34:26.501Z,14.43
2017-06-28T15:36:54.016Z,14.83
2017-06-28T15:39:21.575Z,15.30
2017-06-28T15:41:49.097Z,13.83
2017-06-28T15:44:16.629Z,14.73
2017-06-28T15:46:44.182Z,13.83
2017-06-28T15:49:11.685Z,15.17
2017-06-28T15:51:39.206Z,14.47
2017-06-28T15:54:18.724Z,14.50
2017-06-28T15:56:47.201Z,16.47
2017-06-28T15:59:14.728Z,15.50
2017-06-28T16:01:42.293Z,14.73
2017-06-28T16:04:09.792Z,14.17
2017-06-28T16:06:37.304Z,13.93
2017-06-28T16:09:04.883Z,13.93
2017-06-28T16:11:32.417Z,13.33
2017-06-28T16:13:59.937Z,14.13
2017-06-28T16:16:28.272Z,13.70
2017-06-28T16:18:55.782Z,13.23
2017-06-28T16:21:23.289Z,14.30
2017-06-28T16:23:51.620Z,13.77
2017-06-28T16:26:19.197Z,15.33
2017-06-28T16:28:46.768Z,13.50
2017-06-28T16:31:14.336Z,14.00
2017-06-28T16:33:41.847Z,13.87
2017-06-28T16:36:09.383Z,15.30
2017-06-28T16:38:36.965Z,27.13
2017-06-28T16:41:04.489Z,18.30
2017-06-28T16:43:32.008Z,31.10
2017-06-28T16:45:59.572Z,27.20
2017-06-28T16:48:27.198Z,59.30
2017-06-28T16:50:54.756Z,78.27
2017-06-28T16:53:22.299Z,15.73
2017-06-28T16:55:50.144Z,16.40
2017-06-28T16:58:17.746Z,15.77
2017-06-28T17:00:45.519Z,14.10
2017-06-28T17:03:13.020Z,13.97
2017-06-28T17:05:40.544Z,15.20
2017-06-28T17:08:08.997Z,13.10
2017-06-28T17:10:36.501Z,14.10
2017-06-28T17:13:04.039Z,13.77
2017-06-28T17:15:31.773Z,15.20
2017-06-28T17:17:59.287Z,13.10
2017-06-28T17:20:26.832Z,15.13
2017-06-28T17:22:54.380Z,15.80
2017-06-28T17:25:21.892Z,15.10
2017-06-28T17:27:49.398Z,16.33
2017-06-28T17:30:17.743Z,15.20
2017-06-28T17:32:45.259Z,18.40
2017-06-28T17:35:12.776Z,13.90
2017-06-28T17:37:40.328Z,14.47
2017-06-28T17:40:08.412Z,15.93
2017-06-28T17:42:36.003Z,16.27
2017-06-28T17:45:03.670Z,16.43
2017-06-28T17:47:32.065Z,15.17
2017-06-28T17:50:00.067Z,15.90
2017-06-28T17:52:27.609Z,15.10
2017-06-28T17:54:55.139Z,15.77
2017-06-28T17:57:22.653Z,14.70
2017-06-28T17:59:50.540Z,15.77
2017-06-28T18:02:18.086Z,15.60
2017-06-28T18:04:45.900Z,15.77
2017-06-28T18:07:13.430Z,15.07
2017-06-28T18:09:41.096Z,16.30
2017-06-28T18:12:08.648Z,15.23
2017-06-28T18:14:36.233Z,15.70
2017-06-28T18:17:04.657Z,15.03
2017-06-28T18:19:32.273Z,15.23
2017-06-28T18:21:59.798Z,14.43
2017-06-28T18:24:28.137Z,15.20
2017-06-28T18:26:55.746Z,14.43
2017-06-28T18:29:23.254Z,14.23
2017-06-28T18:31:50.808Z,15.10
2017-06-28T18:34:18.623Z,16.07
2017-06-28T18:36:46.150Z,15.13
2017-06-28T18:39:13.719Z,14.73
2017-06-28T18:41:41.222Z,15.10
2017-06-28T18:44:08.801Z,15.80
2017-06-28T18:46:36.367Z,16.10
2017-06-28T18:49:04.773Z,16.43
2017-06-28T18:51:32.293Z,17.00
2017-06-28T18:53:59.856Z,16.67
2017-06-28T18:56:27.425Z,17.60
2017-06-28T18:58:54.960Z,17.73
2017-06-28T19:01:22.791Z,16.47
2017-06-28T19:03:50.298Z,17.80
2017-06-28T19:06:17.816Z,17.67
2017-06-28T19:08:45.364Z,17.00
2017-06-28T19:11:12.902Z,17.43
2017-06-28T19:13:40.422Z,17.97
2017-06-28T19:16:08.009Z,18.00
2017-06-28T19:18:35.651Z,17.60
2017-06-28T19:21:03.155Z,17.73
2017-06-28T19:23:30.724Z,17.70
2017-06-28T19:25:58.240Z,17.57
2017-06-28T19:28:25.744Z,18.10
2017-06-28T19:30:53.319Z,18.03
2017-06-28T19:33:20.824Z,17.70
2017-06-28T19:35:48.334Z,18.10
2017-06-28T19:38:15.919Z,19.20
2017-06-28T19:40:43.436Z,16.43
2017-06-28T19:43:10.967Z,18.10
2017-06-28T19:45:38.547Z,19.00
2017-06-28T19:48:06.110Z,18.50
2017-06-28T19:50:33.641Z,19.90
2017-06-28T19:53:01.458Z,19.37
2017-06-28T19:55:28.995Z,18.47
2017-06-28T19:57:56.505Z,18.27
2017-06-28T20:00:24.156Z,16.70
2017-06-28T20:02:51.700Z,18.40
2017-06-28T20:05:19.266Z,17.33
2017-06-28T20:07:46.779Z,18.33
2017-06-28T20:10:14.283Z,17.63
2017-06-28T20:12:41.784Z,18.50
2017-06-28T20:15:09.360Z,18.67
2017-06-28T20:17:36.883Z,19.00
2017-06-28T20:20:04.466Z,18.23
2017-06-28T20:22:32.051Z,18.50
2017-06-28T20:24:59.799Z,18.37
2017-06-28T20:27:27.307Z,20.10
2017-06-28T20:29:54.850Z,18.00
2017-06-28T20:32:22.370Z,17.83
2017-06-28T20:34:49.863Z,20.07
2017-06-28T20:37:17.362Z,18.47
2017-06-28T20:39:45.768Z,17.47
2017-06-28T20:42:13.265Z,16.70
2017-06-28T20:44:40.776Z,17.63
2017-06-28T20:47:08.324Z,16.93
2017-06-28T20:49:35.843Z,19.43
2017-06-28T20:52:03.352Z,17.70
2017-06-28T20:54:30.905Z,18.90
2017-06-28T20:56:58.394Z,19.00
2017-06-28T20:59:25.893Z,18.13
2017-06-28T21:01:53.422Z,17.83
2017-06-28T21:04:20.968Z,18.43
2017-06-28T21:06:48.488Z,18.53
2017-06-28T21:09:16.033Z,19.33
2017-06-28T21:11:43.534Z,18.70
2017-06-28T21:14:11.044Z,18.77
2017-06-28T21:16:38.594Z,17.67
2017-06-28T21:19:06.085Z,17.60
2017-06-28T21:21:33.591Z,17.93
2017-06-28T21:24:01.128Z,18.37
2017-06-28T21:26:28.619Z,19.10
2017-06-28T21:28:56.111Z,19.13
2017-06-28T21:31:23.674Z,17.53
2017-06-28T21:33:51.170Z,19.13
2017-06-28T21:36:18.656Z,18.10
2017-06-28T21:38:46.210Z,18.93
2017-06-28T21:41:13.705Z,17.77
2017-06-28T21:43:41.215Z,19.10
2017-06-28T21:46:08.852Z,17.10
2017-06-28T21:48:36.357Z,17.93
2017-06-28T21:51:03.863Z,19.20
2017-06-28T21:53:31.390Z,18.40
2017-06-28T21:56:09.476Z,18.50
2017-06-28T21:58:56.545Z,18.77
2017-06-28T22:01:30.160Z,18.67
2017-06-28T22:03:57.798Z,19.70
2017-06-28T22:06:25.320Z,17.23
2017-06-28T22:08:52.866Z,19.63
2017-06-28T22:11:20.370Z,19.00
2017-06-28T22:13:47.871Z,18.70
2017-06-28T22:16:15.416Z,17.60
2017-06-28T22:18:54.636Z,19.07
2017-06-28T22:21:25.553Z,19.47
2017-06-28T22:24:06.928Z,19.73
2017-06-28T22:26:39.007Z,17.83
2017-06-28T22:31:46.840Z,18.77
2017-06-28T22:34:21.473Z,17.20
2017-06-28T22:36:51.138Z,18.87
2017-06-28T22:41:59.920Z,19.23
2017-06-28T22:44:38.607Z,19.33
2017-06-28T22:47:15.191Z,18.80
2017-06-28T22:52:35.244Z,18.20
2017-06-28T22:55:02.734Z,17.83
2017-06-28T22:57:30.220Z,19.20
2017-06-28T22:59:57.764Z,17.93
2017-06-28T23:02:25.321Z,18.60
2017-06-28T23:04:52.818Z,19.73
2017-06-28T23:07:20.330Z,19.87
2017-06-28T23:09:47.876Z,19.53
2017-06-28T23:12:15.391Z,19.63
2017-06-28T23:14:42.878Z,19.70
2017-06-28T23:17:10.419Z,18.40
2017-06-28T23:19:37.903Z,18.80
2017-06-28T23:22:05.416Z,19.53
2017-06-28T23:24:32.970Z,18.80
2017-06-28T23:27:00.896Z,18.87
2017-06-28T23:29:28.393Z,19.50
2017-06-28T23:31:55.922Z,19.60
2017-06-28T23:34:23.406Z,18.33
2017-06-28T23:36:50.926Z,18.50
2017-06-28T23:39:18.476Z,20.70
2017-06-28T23:41:45.987Z,19.73
2017-06-28T23:44:13.497Z,18.37
2017-06-28T23:46:41.056Z,17.87
2017-06-28T23:49:08.715Z,19.10
2017-06-28T23:51:36.198Z,19.47
2017-06-28T23:54:03.744Z,19.63
2017-06-28T23:56:31.237Z,19.47
2017-06-28T23:58:58.718Z,20.40
